Hammond Crossroads, South Carolina
Current Conditions -  °F | °C
As of 10:58 PM on Monday 20 Oct 2014 (Local Time) from KMMT Reporting Station
Scattered Clouds Scattered Clouds  
Wind Chill: 53°   Ceiling: Unl
Heat Index: 53°   Visibility: 10mi
Dew Point: 52°   Wind: 0mph
Humidity: 97%   Direction: NA
Pressure: 30.01"   Gusts: NA
Location:  33.7122°N, 80.8747°W
Report Text: KMMT 210258Z 00000KT 10SM SCT250 12/11 A3001 RMK AO2A SLP164 T01170112 53001
Loading
Personal Weather Stations






























Interactive Weather Map
Tropical Storm Tracking
New forecast layout! Learn more

10-Day Weather Forecast

Advertisements
Track Severe Weather on mobile